createdAt,value
2023-02-27T00:00:48.341Z,2.27
2023-02-27T00:10:48.460Z,2.16
2023-02-27T00:20:48.883Z,1.95
2023-02-27T00:30:49.002Z,1.98
2023-02-27T00:50:49.440Z,1.71
2023-02-27T01:00:49.667Z,1.44
2023-02-27T01:10:49.830Z,1.53
2023-02-27T01:20:49.989Z,1.53
2023-02-27T01:30:50.232Z,1.46
2023-02-27T01:40:50.495Z,1.76
2023-02-27T01:50:50.619Z,1.62
2023-02-27T02:00:51.121Z,1.68
2023-02-27T02:10:51.360Z,1.75
2023-02-27T02:20:51.572Z,1.76
2023-02-27T02:30:51.624Z,1.74
2023-02-27T02:40:51.790Z,1.77
2023-02-27T03:00:52.274Z,1.75
2023-02-27T03:10:52.279Z,1.94
2023-02-27T03:20:52.471Z,2.04
2023-02-27T03:30:52.780Z,2.10
2023-02-27T03:50:53.143Z,1.89
2023-02-27T04:00:53.367Z,1.85
2023-02-27T04:10:53.574Z,1.85
2023-02-27T04:20:53.821Z,1.83
2023-02-27T04:30:54.296Z,1.75
2023-02-27T04:40:54.289Z,2.01
2023-02-27T04:50:54.576Z,2.04
2023-02-27T05:00:54.825Z,2.00
2023-02-27T05:10:55.063Z,1.87
2023-02-27T05:20:55.311Z,1.78
2023-02-27T05:30:55.448Z,1.75
2023-02-27T05:50:55.902Z,1.54
2023-02-27T06:00:56.001Z,1.57
2023-02-27T06:10:56.203Z,1.49
2023-02-27T06:20:56.448Z,1.55
2023-02-27T06:40:56.757Z,1.75
2023-02-27T06:50:56.880Z,1.89
2023-02-27T07:00:57.097Z,2.18
2023-02-27T07:10:58.780Z,2.45
2023-02-27T07:20:57.522Z,2.40
2023-02-27T07:30:57.782Z,2.55
2023-02-27T07:40:58.008Z,2.62
2023-02-27T08:00:58.700Z,3.13
2023-02-27T08:10:58.867Z,3.41
2023-02-27T08:30:59.585Z,3.86
2023-02-27T08:40:59.925Z,3.75
2023-02-27T08:51:00.305Z,3.23
2023-02-27T09:01:00.712Z,3.53
2023-02-27T09:11:01.075Z,3.46
2023-02-27T09:21:01.422Z,3.69
2023-02-27T09:31:01.826Z,4.33
2023-02-27T09:41:02.253Z,3.99
2023-02-27T09:51:02.595Z,4.21
2023-02-27T10:01:02.968Z,4.17
2023-02-27T10:11:03.324Z,4.47
2023-02-27T10:21:03.753Z,4.69
2023-02-27T10:31:04.099Z,4.77
2023-02-27T10:41:04.506Z,5.21
2023-02-27T10:51:05.006Z,5.06
2023-02-27T11:01:05.426Z,4.92
2023-02-27T11:11:05.755Z,4.80
2023-02-27T11:21:06.188Z,4.58
2023-02-27T11:31:06.664Z,4.77
2023-02-27T11:41:07.075Z,5.41
2023-02-27T11:51:07.737Z,5.33
2023-02-27T12:01:08.039Z,5.38
2023-02-27T12:11:14.055Z,5.24
2023-02-27T12:21:08.943Z,5.76
2023-02-27T12:31:09.785Z,5.93
2023-02-27T12:41:09.949Z,5.73
2023-02-27T12:51:10.489Z,5.31
2023-02-27T13:01:11.027Z,5.82
2023-02-27T13:11:11.512Z,5.89
2023-02-27T13:21:12.384Z,5.54
2023-02-27T13:31:12.590Z,5.74
2023-02-27T13:41:13.246Z,5.47
2023-02-27T13:51:13.842Z,5.40
2023-02-27T14:01:14.153Z,5.49
2023-02-27T14:21:15.050Z,5.40
2023-02-27T14:31:15.601Z,5.28
2023-02-27T14:41:16.053Z,5.49
2023-02-27T14:51:16.627Z,5.47
2023-02-27T15:01:17.197Z,5.53
2023-02-27T15:11:17.640Z,5.49
2023-02-27T15:21:18.232Z,5.38
2023-02-27T15:31:20.836Z,5.26
2023-02-27T15:41:19.278Z,5.19
2023-02-27T15:51:19.937Z,5.08
2023-02-27T16:01:20.839Z,4.88
2023-02-27T16:11:20.659Z,4.78
2023-02-27T16:21:21.140Z,4.53
2023-02-27T16:31:21.813Z,4.69
2023-02-27T16:41:22.322Z,4.51
2023-02-27T16:51:22.522Z,4.32
2023-02-27T17:01:22.671Z,4.03
2023-02-27T17:11:22.918Z,4.10
2023-02-27T17:21:23.377Z,3.64
2023-02-27T17:31:25.438Z,3.64
2023-02-27T17:41:23.900Z,3.18
2023-02-27T18:01:24.453Z,3.05
2023-02-27T18:11:24.424Z,2.93
2023-02-27T18:21:24.987Z,2.35
2023-02-27T18:31:24.845Z,1.93
2023-02-27T18:51:25.339Z,1.65
2023-02-27T19:01:27.537Z,1.84
2023-02-27T19:11:27.594Z,1.60
2023-02-27T19:21:28.251Z,1.25
2023-02-27T19:31:25.839Z,1.19
2023-02-27T19:41:27.900Z,1.39
2023-02-27T19:51:25.747Z,1.67
2023-02-27T20:01:25.855Z,1.60
2023-02-27T20:11:25.939Z,1.68
2023-02-27T20:21:28.330Z,1.43
2023-02-27T20:31:26.731Z,1.25
2023-02-27T20:41:29.321Z,1.39
2023-02-27T20:51:27.034Z,1.25
2023-02-27T21:01:27.825Z,1.11
2023-02-27T21:11:27.929Z,1.14
2023-02-27T21:21:27.763Z,0.87
2023-02-27T21:31:28.044Z,1.05
2023-02-27T21:41:28.006Z,1.05
2023-02-27T21:51:39.600Z,0.80
2023-02-27T22:01:28.233Z,0.81
2023-02-27T22:11:28.230Z,0.60
2023-02-27T22:21:28.462Z,0.85
2023-02-27T22:31:28.591Z,0.87
2023-02-27T22:51:28.917Z,0.79
2023-02-27T23:01:28.954Z,0.84
2023-02-27T23:11:29.079Z,0.69
2023-02-27T23:21:29.133Z,0.61
2023-02-27T23:31:29.351Z,0.71
2023-02-27T23:41:29.607Z,0.51
2023-02-27T23:51:30.495Z,0.45
